createdAt,value
2019-04-05T00:04:26.534Z,93936.63
2019-04-05T00:09:27.920Z,93938.66
2019-04-05T00:14:29.285Z,93944.74
2019-04-05T00:19:30.721Z,93946.08
2019-04-05T00:24:32.191Z,93949.44
2019-04-05T00:29:34.322Z,93955.02
2019-04-05T00:34:35.723Z,93955.23
2019-04-05T00:39:37.181Z,93954.72
2019-04-05T00:44:38.593Z,93969.95
2019-04-05T00:49:40.063Z,93971.92
2019-04-05T00:54:41.490Z,93968.26
2019-04-05T00:59:42.955Z,93978.20
2019-04-05T01:04:51.676Z,93954.61
2019-04-05T01:09:53.085Z,93950.02
2019-04-05T01:14:54.513Z,93957.58
2019-04-05T01:19:55.868Z,93960.23
2019-04-05T01:24:57.260Z,93963.97
2019-04-05T01:29:58.700Z,93967.55
2019-04-05T01:35:00.089Z,93961.41
2019-04-05T01:40:01.503Z,93965.39
2019-04-05T01:45:05.371Z,93960.30
2019-04-05T01:50:06.788Z,93953.58
2019-04-05T01:55:09.005Z,93969.17
2019-04-05T02:00:10.433Z,93968.12
2019-04-05T02:05:11.877Z,93973.53
2019-04-05T02:10:14.433Z,93977.63
2019-04-05T02:15:30.751Z,93980.64
2019-04-05T02:20:32.161Z,93983.39
2019-04-05T02:25:40.850Z,93976.70
2019-04-05T02:30:42.213Z,93979.62
2019-04-05T02:35:43.702Z,93989.61
2019-04-05T02:40:45.157Z,93983.28
2019-04-05T02:45:46.588Z,93976.38
2019-04-05T02:50:49.866Z,93977.92
2019-04-05T02:56:02.567Z,93983.61
2019-04-05T03:01:00.432Z,93988.58
2019-04-05T03:06:02.216Z,93984.40
2019-04-05T03:11:03.822Z,93977.44
2019-04-05T03:16:05.395Z,93968.55
2019-04-05T03:21:08.210Z,93985.00
2019-04-05T03:26:10.266Z,93982.88
2019-04-05T03:31:11.754Z,93977.30
2019-04-05T03:36:13.222Z,93983.61
2019-04-05T03:41:14.622Z,93993.15
2019-04-05T03:46:16.059Z,93988.06
2019-04-05T03:51:17.563Z,93986.45
2019-04-05T03:56:19.007Z,93996.95
2019-04-05T04:01:20.483Z,93991.66
2019-04-05T04:06:21.901Z,93995.70
2019-04-05T04:11:23.361Z,93982.49
2019-04-05T04:16:24.779Z,93984.81
2019-04-05T04:21:30.888Z,93990.82
2019-04-05T04:26:32.316Z,93994.78
2019-04-05T04:31:34.621Z,93991.84
2019-04-05T04:36:36.101Z,93994.58
2019-04-05T04:41:37.604Z,93990.31
2019-04-05T04:46:39.732Z,94001.61
2019-04-05T04:51:41.259Z,93998.17
2019-04-05T04:56:42.771Z,94005.59
2019-04-05T05:01:44.156Z,94010.55
2019-04-05T05:06:45.722Z,94004.45
2019-04-05T05:11:47.268Z,94000.46
2019-04-05T05:16:48.742Z,93998.25
2019-04-05T05:21:50.173Z,93998.23
2019-04-05T05:26:52.371Z,94001.22
2019-04-05T05:31:54.584Z,94013.82
2019-04-05T05:36:56.025Z,94010.87
2019-04-05T05:41:58.185Z,94022.92
2019-04-05T05:46:59.681Z,94021.02
2019-04-05T05:52:01.907Z,94028.24
2019-04-05T05:57:03.282Z,94030.50
2019-04-05T06:02:07.160Z,94017.98
2019-04-05T06:07:06.362Z,94022.98
2019-04-05T06:12:07.801Z,94018.28
2019-04-05T06:17:09.155Z,94021.16
2019-04-05T06:22:10.786Z,94015.53
2019-04-05T06:27:13.337Z,94014.30
2019-04-05T06:32:16.492Z,94014.89
2019-04-05T06:37:18.885Z,94013.82
2019-04-05T06:42:20.263Z,94007.42
2019-04-05T06:47:21.665Z,94009.05
2019-04-05T06:52:23.799Z,94003.75
2019-04-05T06:57:25.216Z,94014.12
2019-04-05T07:02:27.389Z,94022.99
2019-04-05T07:07:29.537Z,94032.08
2019-04-05T07:12:30.932Z,94025.04
2019-04-05T07:17:32.286Z,94019.52
2019-04-05T07:22:39.146Z,94028.57
2019-04-05T07:27:35.902Z,94025.23
2019-04-05T07:32:37.339Z,94033.98
2019-04-05T07:37:39.509Z,94036.72
2019-04-05T07:42:41.634Z,94035.69
2019-04-05T07:47:43.001Z,94038.56
2019-04-05T07:52:44.383Z,94039.53
2019-04-05T07:57:45.866Z,94039.44
2019-04-05T08:02:47.317Z,94041.08
2019-04-05T08:07:48.771Z,94034.13
2019-04-05T08:12:50.152Z,94034.73
2019-04-05T08:17:51.548Z,94041.83
2019-04-05T08:22:52.931Z,94043.42
2019-04-05T08:27:54.353Z,94042.00
2019-04-05T08:32:55.720Z,94039.72
2019-04-05T08:37:57.082Z,94048.89
2019-04-05T08:42:58.468Z,94043.56
2019-04-05T08:47:59.864Z,94031.45
2019-04-05T08:53:01.288Z,94038.19
2019-04-05T08:58:06.836Z,94033.14
2019-04-05T09:03:11.913Z,94035.27
2019-04-05T09:08:12.307Z,94025.06
2019-04-05T09:13:13.637Z,94019.77
2019-04-05T09:18:15.029Z,94020.74
2019-04-05T09:23:16.410Z,94015.19
2019-04-05T09:28:17.824Z,94020.43
2019-04-05T09:33:19.918Z,94023.97
2019-04-05T09:38:21.355Z,94015.80
2019-04-05T09:43:22.735Z,94013.95
2019-04-05T09:48:24.191Z,94021.55
2019-04-05T09:53:26.302Z,94016.28
2019-04-05T09:58:27.715Z,94014.50
2019-04-05T10:03:29.108Z,94016.05
2019-04-05T10:08:31.235Z,94012.13
2019-04-05T10:13:32.653Z,94018.72
2019-04-05T10:18:33.953Z,94007.09
2019-04-05T10:23:35.350Z,94003.02
2019-04-05T10:28:36.787Z,93999.95
2019-04-05T10:33:38.173Z,93999.56
2019-04-05T10:38:39.605Z,93994.44
2019-04-05T10:43:40.917Z,93993.70
2019-04-05T10:48:42.372Z,93994.56
2019-04-05T10:53:43.764Z,93995.00
2019-04-05T10:58:45.154Z,93991.73
2019-04-05T11:03:47.277Z,93980.46
2019-04-05T11:08:48.671Z,93979.11
2019-04-05T11:13:50.086Z,93975.41
2019-04-05T11:18:51.521Z,93971.78
2019-04-05T11:23:55.652Z,93972.98
2019-04-05T11:28:55.098Z,93977.16
2019-04-05T11:33:56.484Z,93967.17
2019-04-05T11:38:57.889Z,93959.88
2019-04-05T11:44:00.722Z,93954.17
2019-04-05T11:49:03.245Z,93960.73
2019-04-05T11:54:02.176Z,93962.39
2019-04-05T11:59:03.574Z,93953.38
2019-04-05T12:04:05.024Z,93953.72
2019-04-05T12:09:06.429Z,93954.75
2019-04-05T12:14:07.824Z,93951.30
2019-04-05T12:19:09.185Z,93942.35
2019-04-05T12:24:10.657Z,93943.13
2019-04-05T12:29:12.012Z,93937.31
2019-04-05T12:34:14.177Z,93929.02
2019-04-05T12:39:15.574Z,93927.77
2019-04-05T12:44:16.960Z,93928.93
2019-04-05T12:49:18.359Z,93922.81
2019-04-05T12:54:19.724Z,93917.96
2019-04-05T12:59:21.104Z,93927.96
2019-04-05T13:04:22.417Z,93910.65
2019-04-05T13:09:24.690Z,93903.60
2019-04-05T13:14:26.599Z,93888.80
2019-04-05T13:19:28.482Z,93887.97
2019-04-05T13:24:28.032Z,93888.70
2019-04-05T13:29:29.401Z,93887.36
2019-04-05T13:34:30.773Z,93875.08
2019-04-05T13:39:32.287Z,93881.75
2019-04-05T13:44:33.635Z,93882.03
2019-04-05T13:49:35.012Z,93881.07
2019-04-05T13:54:36.403Z,93887.39
2019-04-05T13:59:37.752Z,93879.21
2019-04-05T14:04:39.114Z,93875.70
2019-04-05T14:09:40.728Z,93880.15
2019-04-05T14:14:42.175Z,93875.15
2019-04-05T14:19:43.338Z,93874.52
2019-04-05T14:24:44.783Z,93864.98
2019-04-05T14:29:47.620Z,93863.96
2019-04-05T14:34:47.554Z,93855.41
2019-04-05T14:39:48.981Z,93860.56
2019-04-05T14:44:50.291Z,93855.10
2019-04-05T14:49:51.611Z,93851.69
2019-04-05T14:54:52.920Z,93849.27
2019-04-05T14:59:54.250Z,93849.03
2019-04-05T15:04:55.593Z,93858.05
2019-04-05T15:09:56.987Z,93849.27
2019-04-05T15:14:58.374Z,93852.77
2019-04-05T15:19:59.783Z,93848.61
2019-04-05T15:25:01.182Z,93851.69
2019-04-05T15:30:02.534Z,93848.98
2019-04-05T15:35:04.736Z,93848.33
2019-04-05T15:40:06.148Z,93852.14
2019-04-05T15:45:08.267Z,93849.78
2019-04-05T15:50:09.652Z,93846.12
2019-04-05T15:55:11.042Z,93835.75
2019-04-05T16:00:13.361Z,93847.00
2019-04-05T16:05:14.929Z,93849.33
2019-04-05T16:10:17.200Z,93848.86
2019-04-05T16:15:20.550Z,93849.63
2019-04-05T16:20:22.086Z,93847.41
2019-04-05T16:25:24.340Z,93846.88
2019-04-05T16:30:25.827Z,93847.84
2019-04-05T16:35:28.042Z,93856.88
2019-04-05T16:40:31.338Z,93852.47
2019-04-05T16:45:30.916Z,93847.02
2019-04-05T16:50:32.320Z,93852.77
2019-04-05T16:55:33.814Z,93854.56
2019-04-05T17:00:35.186Z,93854.80
2019-04-05T17:05:37.546Z,93853.05
2019-04-05T17:10:50.360Z,93860.11
2019-04-05T17:16:02.690Z,93855.61
2019-04-05T17:21:14.378Z,93865.54
2019-04-05T17:26:15.767Z,93862.61
2019-04-05T17:31:17.132Z,93861.27
2019-04-05T17:36:18.521Z,93870.68
2019-04-05T17:41:25.381Z,93866.91
2019-04-05T17:46:29.310Z,93875.52
2019-04-05T17:51:32.481Z,93882.17
2019-04-05T17:56:33.835Z,93882.17
2019-04-05T18:01:35.213Z,93887.79
2019-04-05T18:06:36.602Z,93896.36
2019-04-05T18:11:38.000Z,93905.21
2019-04-05T18:16:39.337Z,93900.67
2019-04-05T18:21:41.489Z,93902.80
2019-04-05T18:26:42.933Z,93916.19
2019-04-05T18:31:44.374Z,93918.63
2019-04-05T18:36:45.788Z,93913.53
2019-04-05T18:41:47.200Z,93920.09
2019-04-05T18:46:52.623Z,93920.41
2019-04-05T18:51:55.056Z,93939.22
2019-04-05T18:56:57.421Z,93941.30
2019-04-05T19:02:01.005Z,93955.41
2019-04-05T19:07:04.898Z,93954.14
2019-04-05T19:12:07.329Z,93949.26
2019-04-05T19:17:23.158Z,93950.91
2019-04-05T19:22:19.794Z,93950.08
2019-04-05T19:27:42.346Z,93949.73
2019-04-05T19:53:11.771Z,93970.59
2019-04-05T19:58:17.000Z,93974.52
2019-04-05T20:03:19.910Z,93981.00
2019-04-05T20:08:22.930Z,93980.59
2019-04-05T20:13:25.821Z,93985.72
2019-04-05T20:18:27.274Z,93991.22
2019-04-05T20:23:30.568Z,93986.34
2019-04-05T20:28:33.303Z,93985.12
2019-04-05T20:33:38.107Z,93992.75
2019-04-05T20:38:42.029Z,93990.56
2019-04-05T20:43:46.360Z,93999.82
2019-04-05T20:48:51.768Z,93999.35
2019-04-05T20:53:56.457Z,94004.02
2019-04-05T20:58:58.549Z,94005.27
2019-04-05T21:04:01.892Z,94013.62
2019-04-05T21:09:04.540Z,94016.47
2019-04-05T21:14:10.998Z,94007.04
2019-04-05T21:19:14.033Z,94003.93
2019-04-05T21:24:35.721Z,94004.31
2019-04-05T21:29:27.473Z,94002.94
2019-04-05T21:34:28.799Z,93999.98
2019-04-05T21:39:30.162Z,93999.88
2019-04-05T21:44:31.546Z,93995.03
2019-04-05T21:49:32.911Z,94002.89
2019-04-05T21:54:34.233Z,94004.34
2019-04-05T21:59:35.604Z,94008.53
2019-04-05T22:04:37.057Z,94018.44
2019-04-05T22:09:39.186Z,94017.34
2019-04-05T22:14:40.607Z,94009.02
2019-04-05T22:19:42.777Z,94011.56
2019-04-05T22:24:44.180Z,94006.45
2019-04-05T22:29:45.547Z,94005.83
2019-04-05T22:34:46.930Z,94007.86
2019-04-05T22:39:48.301Z,94012.55
2019-04-05T22:44:49.701Z,94015.19
2019-04-05T22:49:51.105Z,94019.64
2019-04-05T22:54:52.432Z,94015.13
2019-04-05T22:59:53.822Z,94020.90
2019-04-05T23:04:55.124Z,94020.27
2019-04-05T23:09:56.465Z,94019.75
2019-04-05T23:14:57.831Z,94017.84
2019-04-05T23:19:59.166Z,94020.89
2019-04-05T23:25:02.357Z,94028.07
2019-04-05T23:30:04.716Z,94024.33
2019-04-05T23:35:07.229Z,94041.16
2019-04-05T23:40:08.645Z,94040.97
2019-04-05T23:45:10.089Z,94047.16
2019-04-05T23:50:12.255Z,94038.78
2019-04-05T23:55:13.635Z,94033.01
